createdAt,value
2019-01-15T00:01:47.845Z,46.60
2019-01-15T00:04:17.580Z,44.50
2019-01-15T00:06:47.620Z,45.93
2019-01-15T00:09:17.293Z,46.00
2019-01-15T00:11:46.940Z,47.07
2019-01-15T00:14:16.627Z,43.83
2019-01-15T00:16:46.490Z,47.77
2019-01-15T00:19:16.156Z,47.17
2019-01-15T00:21:45.849Z,49.53
2019-01-15T00:24:15.492Z,46.10
2019-01-15T00:26:45.137Z,45.50
2019-01-15T00:29:14.817Z,45.30
2019-01-15T00:31:44.501Z,48.93
2019-01-15T00:34:14.845Z,48.33
2019-01-15T00:36:44.518Z,45.23
2019-01-15T00:39:14.177Z,43.23
2019-01-15T00:41:43.869Z,45.57
2019-01-15T00:44:13.532Z,45.57
2019-01-15T00:46:43.198Z,43.57
2019-01-15T00:49:12.857Z,44.57
2019-01-15T00:51:42.550Z,48.10
2019-01-15T00:54:12.214Z,44.67
2019-01-15T00:56:41.959Z,43.03
2019-01-15T00:59:11.648Z,44.77
2019-01-15T01:01:41.320Z,47.73
2019-01-15T01:04:10.989Z,44.77
2019-01-15T01:06:40.678Z,44.97
2019-01-15T01:09:11.534Z,45.43
2019-01-15T01:11:41.253Z,45.20
2019-01-15T01:14:11.113Z,46.07
2019-01-15T01:16:40.778Z,42.70
2019-01-15T01:19:10.502Z,46.20
2019-01-15T01:21:40.171Z,49.43
2019-01-15T01:24:09.825Z,45.07
2019-01-15T01:26:39.491Z,43.83
2019-01-15T01:29:09.182Z,43.67
2019-01-15T01:31:38.823Z,41.67
2019-01-15T01:34:08.502Z,46.30
2019-01-15T01:36:38.191Z,44.43
2019-01-15T01:39:09.328Z,43.10
2019-01-15T01:41:38.940Z,44.07
2019-01-15T01:44:08.630Z,41.93
2019-01-15T01:46:38.280Z,46.13
2019-01-15T01:49:07.927Z,41.50
2019-01-15T01:51:37.677Z,42.30
2019-01-15T01:54:07.335Z,45.27
2019-01-15T01:56:37.116Z,43.63
2019-01-15T01:59:06.822Z,45.87
2019-01-15T02:01:36.552Z,45.13
2019-01-15T02:04:06.210Z,45.60
2019-01-15T02:06:35.985Z,42.90
2019-01-15T02:09:08.094Z,42.23
2019-01-15T02:11:37.764Z,43.03
2019-01-15T02:14:07.850Z,45.23
2019-01-15T02:16:37.515Z,47.00
2019-01-15T02:19:07.182Z,41.97
2019-01-15T02:21:36.860Z,45.43
2019-01-15T02:24:06.880Z,43.63
2019-01-15T02:26:36.553Z,44.53
2019-01-15T02:29:06.250Z,44.27
2019-01-15T02:31:35.901Z,42.57
2019-01-15T02:34:05.636Z,44.37
2019-01-15T02:36:35.323Z,41.67
2019-01-15T02:39:07.933Z,40.87
2019-01-15T02:41:37.595Z,41.53
2019-01-15T02:44:07.277Z,40.10
2019-01-15T02:46:36.941Z,43.43
2019-01-15T02:49:07.922Z,40.10
2019-01-15T02:51:37.921Z,39.70
2019-01-15T02:54:07.719Z,41.40
2019-01-15T02:56:37.583Z,39.77
2019-01-15T02:59:07.538Z,43.07
2019-01-15T03:01:37.199Z,41.73
2019-01-15T03:04:06.977Z,43.53
2019-01-15T03:06:36.647Z,42.20
2019-01-15T03:09:08.554Z,40.30
2019-01-15T03:11:38.227Z,41.10
2019-01-15T03:14:07.910Z,44.17
2019-01-15T03:16:37.570Z,42.53
2019-01-15T03:19:08.671Z,41.23
2019-01-15T03:21:38.357Z,46.43
2019-01-15T03:24:08.025Z,40.27
2019-01-15T03:26:37.672Z,40.57
2019-01-15T03:29:07.352Z,45.67
2019-01-15T03:31:37.035Z,42.90
2019-01-15T03:34:06.685Z,43.37
2019-01-15T03:36:37.739Z,43.13
2019-01-15T03:39:09.212Z,44.60
2019-01-15T03:41:39.264Z,43.77
2019-01-15T03:44:08.938Z,44.53
2019-01-15T03:46:38.619Z,42.53
2019-01-15T03:49:08.276Z,41.80
2019-01-15T03:51:37.955Z,42.13
2019-01-15T03:54:07.630Z,41.73
2019-01-15T03:56:37.290Z,46.83
2019-01-15T03:59:06.984Z,45.53
2019-01-15T04:01:36.639Z,43.87
2019-01-15T04:04:06.585Z,42.10
2019-01-15T04:06:36.266Z,43.67
2019-01-15T04:09:08.434Z,44.30
2019-01-15T04:11:38.106Z,45.83
2019-01-15T04:14:07.783Z,45.93
2019-01-15T04:16:37.432Z,44.40
2019-01-15T04:19:07.101Z,42.97
2019-01-15T04:21:36.799Z,45.33
2019-01-15T04:24:06.456Z,43.90
2019-01-15T04:26:39.217Z,43.97
2019-01-15T04:29:08.906Z,46.13
2019-01-15T04:31:39.361Z,44.87
2019-01-15T04:34:09.337Z,44.67
2019-01-15T04:36:39.005Z,45.97
2019-01-15T04:39:09.556Z,43.80
2019-01-15T04:41:39.235Z,50.00
2019-01-15T04:44:08.924Z,42.60
2019-01-15T04:46:41.322Z,43.10
2019-01-15T04:49:11.044Z,44.77
2019-01-15T04:51:40.812Z,41.67
2019-01-15T04:54:10.510Z,47.10
2019-01-15T04:56:40.625Z,48.80
2019-01-15T04:59:10.305Z,46.03
2019-01-15T05:01:40.035Z,43.30
2019-01-15T05:04:09.700Z,45.67
2019-01-15T05:06:39.390Z,43.67
2019-01-15T05:09:09.569Z,44.27
2019-01-15T05:11:39.235Z,46.83
2019-01-15T05:14:08.929Z,44.97
2019-01-15T05:16:39.915Z,45.40
2019-01-15T05:19:09.577Z,44.63
2019-01-15T05:21:39.267Z,47.07
2019-01-15T05:24:09.104Z,42.73
2019-01-15T05:26:38.792Z,46.33
2019-01-15T05:29:08.474Z,44.63
2019-01-15T05:31:38.141Z,43.10
2019-01-15T05:34:08.832Z,42.60
2019-01-15T05:36:38.544Z,43.40
2019-01-15T05:39:09.423Z,43.27
2019-01-15T05:41:39.082Z,44.57
2019-01-15T05:44:10.160Z,45.33
2019-01-15T05:46:40.255Z,43.60
2019-01-15T05:49:09.915Z,44.40
2019-01-15T05:51:39.971Z,46.80
2019-01-15T05:54:10.447Z,48.90
2019-01-15T05:56:40.049Z,47.50
2019-01-15T05:59:09.744Z,45.73
2019-01-15T06:01:39.470Z,49.77
2019-01-15T06:04:09.338Z,47.03
2019-01-15T06:06:39.150Z,47.20
2019-01-15T06:09:10.115Z,45.80
2019-01-15T06:11:39.796Z,45.20
2019-01-15T06:14:09.477Z,48.27
2019-01-15T06:16:39.142Z,45.20
2019-01-15T06:19:08.810Z,43.60
2019-01-15T06:21:38.483Z,46.50
2019-01-15T06:24:08.219Z,49.33
2019-01-15T06:26:37.891Z,46.43
2019-01-15T06:29:13.921Z,45.40
2019-01-15T06:31:43.577Z,45.93
2019-01-15T06:34:13.314Z,62.10
2019-01-15T06:36:42.985Z,43.93
2019-01-15T06:39:14.183Z,46.57
2019-01-15T06:41:43.939Z,44.53
2019-01-15T06:44:13.610Z,45.07
2019-01-15T06:46:43.284Z,46.53
2019-01-15T06:49:12.953Z,49.50
2019-01-15T06:51:42.676Z,48.10
2019-01-15T06:54:12.325Z,48.93
2019-01-15T06:56:41.981Z,45.27
2019-01-15T06:59:11.600Z,46.23
2019-01-15T07:01:41.256Z,43.43
2019-01-15T07:04:10.928Z,46.57
2019-01-15T07:06:40.606Z,46.90
2019-01-15T07:09:11.176Z,47.97
2019-01-15T07:11:41.034Z,46.03
2019-01-15T07:14:10.856Z,46.80
2019-01-15T07:16:41.099Z,50.63
2019-01-15T07:19:10.766Z,45.27
2019-01-15T07:21:40.620Z,48.37
2019-01-15T07:24:10.284Z,46.47
2019-01-15T07:26:39.945Z,45.37
2019-01-15T07:29:09.751Z,45.67
2019-01-15T07:31:40.664Z,44.37
2019-01-15T07:34:10.330Z,47.90
2019-01-15T07:36:40.022Z,48.03
2019-01-15T07:39:10.072Z,46.17
2019-01-15T07:41:39.770Z,46.50
2019-01-15T07:44:09.447Z,46.20
2019-01-15T07:46:39.307Z,46.50
2019-01-15T07:49:09.075Z,45.13
2019-01-15T07:51:38.776Z,48.07
2019-01-15T07:54:08.441Z,47.83
2019-01-15T07:56:38.113Z,45.20
2019-01-15T07:59:07.795Z,46.30
2019-01-15T08:01:37.535Z,45.43
2019-01-15T08:04:07.186Z,47.07
2019-01-15T08:06:36.862Z,45.93
2019-01-15T08:09:11.791Z,48.00
2019-01-15T08:11:41.513Z,46.17
2019-01-15T08:14:12.198Z,47.47
2019-01-15T08:16:42.260Z,45.00
2019-01-15T08:19:11.921Z,45.93
2019-01-15T08:21:41.611Z,45.53
2019-01-15T08:24:11.286Z,45.60
2019-01-15T08:26:40.977Z,46.33
2019-01-15T08:29:10.870Z,46.13
2019-01-15T08:31:40.537Z,46.87
2019-01-15T08:34:10.192Z,49.23
2019-01-15T08:36:39.864Z,46.37
2019-01-15T08:39:09.947Z,44.37
2019-01-15T08:41:39.595Z,46.47
2019-01-15T08:44:09.295Z,48.03
2019-01-15T08:46:38.966Z,45.70
2019-01-15T08:49:08.718Z,43.47
2019-01-15T08:51:38.768Z,44.00
2019-01-15T08:54:09.294Z,44.47
2019-01-15T08:56:38.982Z,44.83
2019-01-15T08:59:08.655Z,44.27
2019-01-15T09:01:38.407Z,47.73
2019-01-15T09:04:08.095Z,46.10
2019-01-15T09:06:39.145Z,46.33
2019-01-15T09:09:09.238Z,45.60
2019-01-15T09:11:38.916Z,44.43
2019-01-15T09:14:08.757Z,50.53
2019-01-15T09:16:38.456Z,49.10
2019-01-15T09:19:08.305Z,49.93
2019-01-15T09:21:37.970Z,47.27
2019-01-15T09:24:07.648Z,47.43
2019-01-15T09:26:37.329Z,47.80
2019-01-15T09:29:07.007Z,48.77
2019-01-15T09:31:36.676Z,51.73
2019-01-15T09:34:06.515Z,47.70
2019-01-15T09:36:36.285Z,48.83
2019-01-15T09:39:08.391Z,49.97
2019-01-15T09:41:38.946Z,49.53
2019-01-15T09:44:08.686Z,50.50
2019-01-15T09:46:38.274Z,50.63
2019-01-15T09:49:07.991Z,52.73
2019-01-15T09:51:37.700Z,50.17
2019-01-15T09:54:13.287Z,49.83
2019-01-15T09:56:42.967Z,51.20
2019-01-15T09:59:12.681Z,50.93
2019-01-15T10:01:42.516Z,53.50
2019-01-15T10:04:12.214Z,48.77
2019-01-15T10:06:41.880Z,48.97
2019-01-15T10:09:11.558Z,53.07
2019-01-15T10:11:41.249Z,49.70
2019-01-15T10:14:10.935Z,50.43
2019-01-15T10:16:42.031Z,50.00
2019-01-15T10:19:11.725Z,50.33
2019-01-15T10:21:42.381Z,50.67
2019-01-15T10:24:12.119Z,51.07
2019-01-15T10:26:41.934Z,51.03
2019-01-15T10:29:11.597Z,52.67
2019-01-15T10:32:23.954Z,51.00
2019-01-15T10:34:54.406Z,50.60
2019-01-15T10:37:24.091Z,51.70
2019-01-15T10:39:53.788Z,54.67
2019-01-15T10:42:23.448Z,52.13
2019-01-15T10:44:53.207Z,49.50
2019-01-15T10:47:22.930Z,51.93
2019-01-15T10:49:52.606Z,51.37
2019-01-15T10:52:22.294Z,51.23
2019-01-15T10:54:52.126Z,53.03
2019-01-15T10:57:21.800Z,48.57
2019-01-15T10:59:51.481Z,50.43
2019-01-15T11:02:21.192Z,50.30
2019-01-15T11:04:50.849Z,50.03
2019-01-15T11:07:20.528Z,52.37
2019-01-15T11:09:50.231Z,50.80
2019-01-15T11:12:19.841Z,51.23
2019-01-15T11:14:56.090Z,50.27
2019-01-15T11:17:21.389Z,48.80
2019-01-15T11:19:51.142Z,52.10
2019-01-15T11:22:20.821Z,50.53
2019-01-15T11:24:50.630Z,50.43
2019-01-15T11:27:20.299Z,49.10
2019-01-15T11:29:49.974Z,51.27
2019-01-15T11:32:19.669Z,52.30
2019-01-15T11:34:49.350Z,51.00
2019-01-15T11:37:19.024Z,50.43
2019-01-15T11:39:48.729Z,49.17
2019-01-15T11:42:18.390Z,52.23
2019-01-15T11:44:48.069Z,50.00
2019-01-15T11:47:17.763Z,49.97
2019-01-15T11:49:47.435Z,50.70
2019-01-15T11:52:17.184Z,50.13
2019-01-15T11:54:46.870Z,51.10
2019-01-15T11:57:16.527Z,52.03
2019-01-15T11:59:46.271Z,51.47
2019-01-15T12:02:22.135Z,51.17
2019-01-15T12:04:56.626Z,52.00
2019-01-15T12:07:43.990Z,52.60
2019-01-15T12:10:15.707Z,49.23
2019-01-15T12:12:49.770Z,49.63
2019-01-15T12:15:23.757Z,51.20
2019-01-15T12:18:11.459Z,49.03
2019-01-15T12:20:51.616Z,50.23
2019-01-15T12:23:25.902Z,49.70
2019-01-15T12:26:00.234Z,51.00
2019-01-15T12:28:31.580Z,50.93
2019-01-15T12:31:05.622Z,50.60
2019-01-15T12:33:45.905Z,51.77
2019-01-15T12:36:20.347Z,51.43
2019-01-15T12:38:51.674Z,50.77
2019-01-15T12:41:25.901Z,51.33
2019-01-15T12:44:12.217Z,52.27
2019-01-15T12:46:43.501Z,51.77
2019-01-15T12:49:14.792Z,51.67
2019-01-15T12:51:46.144Z,51.00
2019-01-15T12:54:20.256Z,51.23
2019-01-15T12:56:54.461Z,51.23
2019-01-15T12:59:28.730Z,52.33
2019-01-15T13:02:05.646Z,50.53
2019-01-15T13:04:51.686Z,52.60
2019-01-15T13:07:23.036Z,50.80
2019-01-15T13:10:00.421Z,51.10
2019-01-15T13:12:47.838Z,52.37
2019-01-15T13:15:34.262Z,49.87
2019-01-15T13:18:16.666Z,51.00
2019-01-15T13:20:47.978Z,51.60
2019-01-15T13:23:28.204Z,51.90
2019-01-15T13:25:59.531Z,51.57
2019-01-15T13:28:30.853Z,54.43
2019-01-15T13:31:14.209Z,51.90
2019-01-15T13:33:54.232Z,51.77
2019-01-15T13:36:25.580Z,51.43
2019-01-15T13:38:57.179Z,51.83
2019-01-15T13:41:28.485Z,52.90
2019-01-15T13:43:59.806Z,51.90
2019-01-15T13:46:31.176Z,51.37
2019-01-15T13:49:18.504Z,50.77
2019-01-15T13:52:07.949Z,52.50
2019-01-15T13:54:48.378Z,53.87
2019-01-15T13:57:19.681Z,52.37
2019-01-15T13:59:50.976Z,50.70
2019-01-15T14:02:40.185Z,50.67
2019-01-15T14:05:14.597Z,51.63
2019-01-15T14:07:45.913Z,51.50
2019-01-15T14:10:17.830Z,52.27
2019-01-15T14:12:57.959Z,54.27
2019-01-15T14:15:29.249Z,52.03
2019-01-15T14:18:03.177Z,54.53
2019-01-15T14:20:50.380Z,52.20
2019-01-15T14:23:30.363Z,51.13
2019-01-15T14:26:07.648Z,51.83
2019-01-15T14:28:41.910Z,51.23
2019-01-15T14:31:19.267Z,51.73
2019-01-15T14:34:08.662Z,52.70
2019-01-15T14:36:40.105Z,52.07
2019-01-15T14:39:27.998Z,50.93
2019-01-15T14:42:15.376Z,53.83
2019-01-15T14:45:01.983Z,50.40
2019-01-15T14:47:48.196Z,51.80
2019-01-15T14:50:31.504Z,53.03
2019-01-15T14:53:19.171Z,50.37
2019-01-15T14:56:02.711Z,51.57
2019-01-15T14:58:45.731Z,52.23
2019-01-15T15:01:17.072Z,50.63
2019-01-15T15:04:04.363Z,50.10
2019-01-15T15:06:50.801Z,52.83
2019-01-15T15:09:36.977Z,51.87
2019-01-15T15:12:10.878Z,50.73
2019-01-15T15:14:51.065Z,51.27
2019-01-15T15:17:25.237Z,50.73
2019-01-15T15:19:56.542Z,51.20
2019-01-15T15:22:39.867Z,51.00
2019-01-15T15:25:12.204Z,49.20
2019-01-15T15:27:49.873Z,50.90
2019-01-15T15:30:29.836Z,52.60
2019-01-15T15:33:01.185Z,50.80
2019-01-15T15:35:47.289Z,50.57
2019-01-15T15:38:33.839Z,50.87
2019-01-15T15:41:07.687Z,53.87
2019-01-15T15:43:56.493Z,51.40
2019-01-15T15:46:46.007Z,53.40
2019-01-15T15:49:39.504Z,51.53
2019-01-15T15:52:16.422Z,55.53
2019-01-15T15:54:53.338Z,53.80
2019-01-15T15:57:36.623Z,51.43
2019-01-15T16:00:32.651Z,51.57
2019-01-15T16:03:20.145Z,52.63
2019-01-15T16:05:54.363Z,51.93
2019-01-15T16:08:41.903Z,52.50
2019-01-15T16:11:30.835Z,52.97
2019-01-15T16:14:07.944Z,52.37
2019-01-15T16:16:39.303Z,51.23
2019-01-15T16:19:26.531Z,50.77
2019-01-15T16:21:57.866Z,51.77
2019-01-15T16:24:29.189Z,51.50
2019-01-15T16:27:03.309Z,54.47
2019-01-15T16:29:52.165Z,52.40
2019-01-15T16:32:38.473Z,52.37
2019-01-15T16:35:13.334Z,53.73
2019-01-15T16:37:53.479Z,52.70
2019-01-15T16:40:24.783Z,55.37
2019-01-15T16:42:56.150Z,53.57
2019-01-15T16:45:42.288Z,52.43
2019-01-15T16:48:16.354Z,53.17
2019-01-15T16:50:47.699Z,52.27
2019-01-15T16:53:36.822Z,52.60
2019-01-15T16:56:11.361Z,52.87
2019-01-15T16:58:45.230Z,53.27
2019-01-15T17:01:28.499Z,59.00
2019-01-15T17:04:00.116Z,54.17
2019-01-15T17:06:40.624Z,51.53
2019-01-15T17:09:21.434Z,53.30
2019-01-15T17:12:09.418Z,51.83
2019-01-15T17:14:56.897Z,51.37
2019-01-15T17:17:43.692Z,51.40
2019-01-15T17:20:17.818Z,50.57
2019-01-15T17:23:08.415Z,51.53
2019-01-15T17:25:45.793Z,53.43
2019-01-15T17:28:33.433Z,51.73
2019-01-15T17:31:13.651Z,51.30
2019-01-15T17:33:47.962Z,53.03
2019-01-15T17:36:35.599Z,53.53
2019-01-15T17:39:26.678Z,50.13
2019-01-15T17:42:06.901Z,51.37
2019-01-15T17:47:51.192Z,52.97
2019-01-15T17:50:28.122Z,50.87
2019-01-15T17:55:56.420Z,50.47
2019-01-15T17:58:33.275Z,50.03
2019-01-15T18:01:04.602Z,50.13
2019-01-15T18:03:53.160Z,51.73
2019-01-15T18:06:38.916Z,51.27
2019-01-15T18:09:13.617Z,51.33
2019-01-15T18:11:50.553Z,51.93
2019-01-15T18:14:26.957Z,50.67
2019-01-15T18:16:59.302Z,51.97
2019-01-15T18:19:43.734Z,50.77
2019-01-15T18:22:15.072Z,50.97
2019-01-15T18:24:58.059Z,48.50
2019-01-15T18:27:35.377Z,50.60
2019-01-15T18:30:17.487Z,51.03
2019-01-15T18:33:05.123Z,52.37
2019-01-15T18:35:39.225Z,50.60
2019-01-15T18:38:13.076Z,51.53
2019-01-15T18:40:53.253Z,47.57
2019-01-15T18:43:40.958Z,50.00
2019-01-15T18:46:17.805Z,51.63
2019-01-15T18:49:05.115Z,50.07
2019-01-15T18:51:45.475Z,49.07
2019-01-15T18:54:26.928Z,51.07
2019-01-15T18:56:58.169Z,51.63
2019-01-15T18:59:44.509Z,50.63
2019-01-15T19:02:30.879Z,51.23
2019-01-15T19:05:20.401Z,49.23
2019-01-15T19:07:54.278Z,50.43
2019-01-15T19:10:37.733Z,49.77
2019-01-15T19:13:36.958Z,49.67
2019-01-15T19:16:17.288Z,50.93
2019-01-15T19:19:00.426Z,49.37
2019-01-15T19:21:31.740Z,49.83
2019-01-15T19:24:09.346Z,50.97
2019-01-15T19:26:49.825Z,50.63
2019-01-15T19:29:32.832Z,50.50
2019-01-15T19:32:20.370Z,49.63
2019-01-15T19:35:06.683Z,50.37
2019-01-15T19:37:47.032Z,50.70
2019-01-15T19:40:34.163Z,54.93
2019-01-15T19:43:14.276Z,49.97
2019-01-15T19:45:45.605Z,50.43
2019-01-15T19:48:35.239Z,50.67
2019-01-15T19:51:24.687Z,50.97
2019-01-15T19:53:58.833Z,50.77
2019-01-15T19:56:35.767Z,51.80
2019-01-15T20:02:16.821Z,55.33
2019-01-15T20:04:50.624Z,51.60
2019-01-15T20:07:37.801Z,51.20
2019-01-15T20:10:18.033Z,55.20
2019-01-15T20:12:55.055Z,51.07
2019-01-15T20:15:42.113Z,51.00
2019-01-15T20:18:33.190Z,51.80
2019-01-15T20:21:20.671Z,52.33
2019-01-15T20:24:00.769Z,52.83
2019-01-15T20:26:34.504Z,53.07
2019-01-15T20:29:11.606Z,50.53
2019-01-15T20:31:48.786Z,55.67
2019-01-15T20:34:20.119Z,51.33
2019-01-15T20:36:57.206Z,51.17
2019-01-15T20:39:47.138Z,51.17
2019-01-15T20:42:31.899Z,51.70
2019-01-15T20:45:15.338Z,55.13
2019-01-15T20:48:02.746Z,53.37
2019-01-15T20:50:50.425Z,54.73
2019-01-15T20:53:24.817Z,54.07
2019-01-15T20:55:58.814Z,52.80
2019-01-15T20:58:33.046Z,54.20
2019-01-15T21:01:10.139Z,52.30
2019-01-15T21:03:50.012Z,56.10
2019-01-15T21:06:27.241Z,53.90
2019-01-15T21:09:16.755Z,55.37
2019-01-15T21:11:57.153Z,55.10
2019-01-15T21:14:44.696Z,55.03
2019-01-15T21:17:22.128Z,52.10
2019-01-15T21:20:02.405Z,54.23
2019-01-15T21:22:48.446Z,52.07
2019-01-15T21:25:28.438Z,52.03
2019-01-15T21:28:00.632Z,50.97
2019-01-15T21:30:50.250Z,51.23
2019-01-15T21:33:26.067Z,54.60
2019-01-15T21:35:59.124Z,53.57
2019-01-15T21:38:31.158Z,51.37
2019-01-15T21:41:17.802Z,53.03
2019-01-15T21:44:05.340Z,54.63
2019-01-15T21:46:36.640Z,51.53
2019-01-15T21:49:25.547Z,53.50
2019-01-15T21:51:59.561Z,50.87
2019-01-15T21:54:46.926Z,50.63
2019-01-15T21:57:30.033Z,53.47
2019-01-15T22:00:17.526Z,50.37
2019-01-15T22:03:07.076Z,51.67
2019-01-15T22:05:41.223Z,51.23
2019-01-15T22:08:30.677Z,50.30
2019-01-15T22:11:13.702Z,52.10
2019-01-15T22:13:53.921Z,52.13
2019-01-15T22:16:25.280Z,50.27
2019-01-15T22:22:01.489Z,49.03
2019-01-15T22:24:44.717Z,48.93
2019-01-15T22:27:16.044Z,51.23
2019-01-15T22:29:53.085Z,51.33
2019-01-15T22:32:40.285Z,48.77
2019-01-15T22:35:17.693Z,50.33
2019-01-15T22:37:58.120Z,51.57
2019-01-15T22:40:29.425Z,49.90
2019-01-15T22:43:03.710Z,50.43
2019-01-15T22:45:46.792Z,50.33
2019-01-15T22:48:18.113Z,50.27
2019-01-15T22:51:05.721Z,49.03
2019-01-15T22:53:54.765Z,50.27
2019-01-15T22:56:28.850Z,49.47
2019-01-15T22:59:00.188Z,49.23
2019-01-15T23:01:36.186Z,50.67
2019-01-15T23:04:08.001Z,48.60
2019-01-15T23:06:48.298Z,49.77
2019-01-15T23:09:28.656Z,48.97
2019-01-15T23:11:59.962Z,50.27
2019-01-15T23:14:37.229Z,48.27
2019-01-15T23:17:23.837Z,49.07
2019-01-15T23:19:57.863Z,50.20
2019-01-15T23:22:29.167Z,46.87
2019-01-15T23:25:18.430Z,48.43
2019-01-15T23:27:49.748Z,48.03
2019-01-15T23:30:30.356Z,51.07
2019-01-15T23:33:04.842Z,50.70
2019-01-15T23:35:52.319Z,48.10
2019-01-15T23:38:29.578Z,49.73
2019-01-15T23:41:06.632Z,48.13
2019-01-15T23:43:37.935Z,49.07
2019-01-15T23:46:25.139Z,49.27
2019-01-15T23:49:15.109Z,49.47
2019-01-15T23:51:58.688Z,48.13
2019-01-15T23:54:33.062Z,50.63
2019-01-15T23:57:07.115Z,50.23
2019-01-15T23:59:38.423Z,48.33
